createdAt,value
2019-05-16T00:00:40.151Z,91.80
2019-05-16T00:03:08.036Z,91.70
2019-05-16T00:05:47.719Z,91.12
2019-05-16T00:08:03.735Z,90.77
2019-05-16T00:10:30.505Z,90.85
2019-05-16T00:12:59.533Z,91.27
2019-05-16T00:15:26.038Z,91.48
2019-05-16T00:17:54.733Z,91.43
2019-05-16T00:20:21.607Z,91.06
2019-05-16T00:22:48.594Z,91.24
2019-05-16T00:25:15.358Z,91.50
2019-05-16T00:27:42.192Z,91.49
2019-05-16T00:30:09.541Z,91.28
2019-05-16T00:32:38.707Z,91.09
2019-05-16T00:35:05.828Z,90.87
2019-05-16T00:37:32.565Z,90.71
2019-05-16T00:42:25.184Z,90.73
2019-05-16T00:44:51.965Z,90.75
2019-05-16T00:47:18.664Z,90.81
2019-05-16T00:49:47.824Z,90.95
2019-05-16T00:52:14.177Z,91.06
2019-05-16T00:54:43.630Z,91.36
2019-05-16T00:57:10.786Z,90.98
2019-05-16T00:59:38.171Z,91.37
2019-05-16T01:02:05.007Z,91.00
2019-05-16T01:04:31.962Z,90.96
2019-05-16T01:07:01.682Z,90.90
2019-05-16T01:09:28.262Z,90.61
2019-05-16T01:11:55.417Z,90.66
2019-05-16T01:14:22.078Z,90.61
2019-05-16T01:16:48.928Z,90.92
2019-05-16T01:19:15.736Z,90.64
2019-05-16T01:21:42.444Z,90.99
2019-05-16T01:24:09.147Z,90.96
2019-05-16T01:26:35.924Z,91.26
2019-05-16T01:29:02.606Z,91.22
2019-05-16T01:31:29.274Z,91.79
2019-05-16T01:33:58.292Z,91.96
2019-05-16T01:36:34.236Z,92.29
2019-05-16T01:38:53.369Z,92.17
2019-05-16T01:41:20.156Z,92.24
2019-05-16T01:43:48.365Z,92.32
2019-05-16T01:46:17.858Z,91.92
2019-05-16T01:51:10.250Z,92.57
2019-05-16T01:53:39.292Z,92.57
2019-05-16T01:56:05.661Z,92.56
2019-05-16T01:58:32.423Z,92.68
2019-05-16T02:01:11.650Z,92.56
2019-05-16T02:05:53.801Z,92.16
2019-05-16T02:08:20.463Z,92.04
2019-05-16T02:10:47.853Z,92.23
2019-05-16T02:13:15.101Z,92.71
2019-05-16T02:15:41.958Z,92.75
2019-05-16T02:18:08.719Z,92.33
2019-05-16T02:20:35.202Z,92.18
2019-05-16T02:23:01.703Z,91.82
2019-05-16T02:25:28.550Z,92.03
2019-05-16T02:27:55.223Z,92.05
2019-05-16T02:32:47.791Z,92.40
2019-05-16T02:35:14.564Z,92.47
2019-05-16T02:40:07.705Z,92.70
2019-05-16T02:42:34.577Z,92.37
2019-05-16T02:45:02.310Z,92.30
2019-05-16T02:47:30.916Z,92.59
2019-05-16T02:50:00.992Z,92.64
2019-05-16T02:52:27.031Z,92.35
2019-05-16T02:54:53.754Z,92.41
2019-05-16T02:57:21.233Z,92.38
2019-05-16T02:59:50.904Z,92.45
2019-05-16T03:02:16.887Z,92.31
2019-05-16T03:04:44.414Z,92.08
2019-05-16T03:07:30.288Z,91.96
2019-05-16T03:09:42.482Z,92.01
2019-05-16T03:12:10.747Z,92.53
2019-05-16T03:14:37.870Z,92.48
2019-05-16T03:17:04.791Z,92.79
2019-05-16T03:19:34.747Z,92.86
2019-05-16T03:22:03.763Z,92.74
2019-05-16T03:24:31.101Z,92.86
2019-05-16T03:27:01.313Z,92.99
2019-05-16T03:29:26.881Z,93.10
2019-05-16T03:31:54.850Z,93.09
2019-05-16T03:34:25.106Z,93.05
2019-05-16T03:36:54.411Z,92.92
2019-05-16T03:39:21.219Z,92.99
2019-05-16T03:41:50.565Z,92.88
2019-05-16T03:44:16.360Z,92.82
2019-05-16T03:46:43.042Z,92.75
2019-05-16T03:49:11.396Z,92.81
2019-05-16T03:51:41.220Z,92.81
2019-05-16T03:54:06.938Z,92.82
2019-05-16T03:56:34.802Z,92.68
2019-05-16T03:59:01.493Z,92.47
2019-05-16T04:01:31.118Z,92.76
2019-05-16T04:03:56.906Z,92.75
2019-05-16T04:06:23.713Z,92.59
2019-05-16T04:08:51.234Z,92.47
2019-05-16T04:11:23.041Z,92.46
2019-05-16T04:13:47.087Z,92.42
2019-05-16T04:16:13.869Z,92.42
2019-05-16T04:18:41.948Z,92.66
2019-05-16T04:21:11.812Z,92.62
2019-05-16T04:23:41.677Z,92.41
2019-05-16T04:26:06.785Z,92.46
2019-05-16T04:28:34.262Z,92.54
2019-05-16T04:31:02.219Z,92.34
2019-05-16T04:33:30.950Z,92.07
2019-05-16T04:36:00.882Z,91.95
2019-05-16T04:38:39.642Z,92.21
2019-05-16T04:40:55.226Z,92.32
2019-05-16T04:43:23.040Z,92.24
2019-05-16T04:45:52.285Z,92.18
2019-05-16T04:48:21.822Z,92.15
2019-05-16T04:50:47.079Z,92.00
2019-05-16T04:53:13.781Z,92.07
2019-05-16T04:55:41.982Z,92.12
2019-05-16T04:58:10.609Z,92.18
2019-05-16T05:00:37.569Z,91.76
2019-05-16T05:03:04.543Z,91.53
2019-05-16T05:05:33.388Z,91.71
2019-05-16T05:08:01.518Z,91.95
2019-05-16T05:10:31.262Z,92.24
2019-05-16T05:12:57.329Z,92.26
2019-05-16T05:15:24.105Z,92.50
2019-05-16T05:17:50.948Z,92.81
2019-05-16T05:20:20.836Z,92.39
2019-05-16T05:22:46.465Z,92.35
2019-05-16T05:25:13.324Z,92.29
2019-05-16T05:27:41.279Z,92.30
2019-05-16T05:30:10.743Z,92.03
2019-05-16T05:32:36.864Z,91.55
2019-05-16T05:35:07.170Z,91.39
2019-05-16T05:37:33.859Z,91.68
2019-05-16T05:40:00.565Z,91.80
2019-05-16T05:42:30.654Z,91.79
2019-05-16T05:44:57.106Z,91.58
2019-05-16T05:47:23.832Z,91.87
2019-05-16T05:49:50.745Z,91.80
2019-05-16T05:52:17.434Z,91.44
2019-05-16T05:54:44.126Z,91.44
2019-05-16T05:57:10.889Z,91.62
2019-05-16T05:59:37.599Z,91.79
2019-05-16T06:02:04.313Z,91.34
2019-05-16T06:04:31.168Z,91.05
2019-05-16T06:07:01.175Z,90.62
2019-05-16T06:09:30.035Z,90.92
2019-05-16T06:11:56.468Z,91.01
2019-05-16T06:14:24.177Z,90.96
2019-05-16T06:16:51.064Z,91.23
2019-05-16T06:19:20.048Z,90.60
2019-05-16T06:21:46.601Z,90.95
2019-05-16T06:24:16.317Z,90.45
2019-05-16T06:26:43.186Z,90.26
2019-05-16T06:29:10.615Z,89.39
2019-05-16T06:31:40.632Z,88.62
2019-05-16T06:34:11.411Z,88.73
2019-05-16T06:36:36.165Z,88.08
2019-05-16T06:39:05.602Z,87.59
2019-05-16T06:41:32.402Z,86.90
2019-05-16T06:43:59.940Z,88.08
2019-05-16T06:46:26.809Z,88.40
2019-05-16T06:48:53.627Z,88.32
2019-05-16T06:51:21.484Z,88.78
2019-05-16T06:53:50.032Z,89.33
2019-05-16T06:56:16.980Z,88.16
2019-05-16T06:58:48.274Z,87.69
2019-05-16T07:01:12.479Z,86.67
2019-05-16T07:03:40.087Z,85.16
2019-05-16T07:06:07.110Z,83.56
2019-05-16T07:08:33.864Z,86.62
2019-05-16T07:11:00.627Z,82.50
2019-05-16T07:13:27.382Z,79.92
2019-05-16T07:15:54.132Z,81.29
2019-05-16T07:18:21.428Z,82.74
2019-05-16T07:20:50.726Z,84.68
2019-05-16T07:23:17.215Z,84.97
2019-05-16T07:25:43.980Z,85.73
2019-05-16T07:28:10.867Z,83.80
2019-05-16T07:30:37.681Z,84.42
2019-05-16T07:33:04.930Z,85.16
2019-05-16T07:35:31.368Z,83.66
2019-05-16T07:38:00.606Z,84.81
2019-05-16T07:40:27.812Z,83.90
2019-05-16T07:42:54.960Z,84.15
2019-05-16T07:45:21.702Z,80.79
2019-05-16T07:47:50.664Z,84.95
2019-05-16T07:50:19.979Z,83.95
2019-05-16T07:52:45.426Z,84.52
2019-05-16T07:55:12.207Z,85.39
2019-05-16T07:57:39.871Z,85.64
2019-05-16T08:00:09.655Z,86.19
2019-05-16T08:02:36.611Z,85.29
2019-05-16T08:05:04.661Z,85.36
2019-05-16T08:07:33.665Z,86.50
2019-05-16T08:10:00.088Z,85.03
2019-05-16T08:12:27.276Z,86.16
2019-05-16T08:14:54.419Z,85.30
2019-05-16T08:19:50.620Z,86.30
2019-05-16T08:22:17.757Z,84.41
2019-05-16T08:24:44.448Z,84.00
2019-05-16T08:27:12.237Z,85.95
2019-05-16T08:29:40.444Z,84.63
2019-05-16T08:32:11.205Z,84.43
2019-05-16T08:34:36.024Z,81.49
2019-05-16T08:37:02.871Z,82.23
2019-05-16T08:39:31.039Z,81.67
2019-05-16T08:42:05.358Z,83.72
2019-05-16T08:44:26.786Z,85.09
2019-05-16T08:49:22.398Z,80.42
2019-05-16T08:50:05.719Z,84.99
2019-05-16T08:50:10.798Z,79.09
2019-05-16T08:54:20.707Z,80.27
2019-05-16T08:56:50.788Z,78.26
2019-05-16T08:59:16.170Z,81.29
2019-05-16T09:01:50.630Z,81.84
2019-05-16T09:04:11.994Z,77.88
2019-05-16T09:06:42.419Z,81.19
2019-05-16T09:09:22.304Z,81.10
2019-05-16T09:10:30.561Z,78.97
2019-05-16T09:11:44.087Z,80.85
2019-05-16T09:14:07.717Z,81.25
2019-05-16T09:16:33.465Z,80.72
2019-05-16T09:19:00.299Z,81.66
2019-05-16T09:21:27.610Z,80.46
2019-05-16T09:23:54.459Z,82.19
2019-05-16T09:26:21.175Z,84.25
2019-05-16T09:28:48.363Z,82.57
2019-05-16T09:31:17.843Z,80.22
2019-05-16T09:33:43.881Z,80.77
2019-05-16T09:36:10.614Z,81.07
2019-05-16T09:38:38.308Z,81.48
2019-05-16T09:41:07.849Z,82.05
2019-05-16T09:43:33.861Z,83.64
2019-05-16T09:46:04.009Z,80.79
2019-05-16T09:48:29.434Z,82.94
2019-05-16T09:50:57.702Z,77.39
2019-05-16T09:53:24.638Z,76.24
2019-05-16T09:55:51.399Z,75.25
2019-05-16T09:58:18.632Z,76.72
2019-05-16T10:00:47.302Z,76.31
2019-05-16T10:03:20.115Z,77.10
2019-05-16T10:05:46.498Z,76.74
2019-05-16T10:08:12.782Z,78.55
2019-05-16T10:10:39.502Z,84.11
2019-05-16T10:13:06.830Z,81.70
2019-05-16T10:15:33.671Z,82.33
2019-05-16T10:18:00.444Z,80.78
2019-05-16T10:20:27.462Z,79.72
2019-05-16T10:22:54.400Z,79.59
2019-05-16T10:25:21.252Z,79.02
2019-05-16T10:27:47.973Z,77.63
2019-05-16T10:30:17.646Z,76.18
2019-05-16T10:32:47.183Z,80.09
2019-05-16T10:35:14.980Z,80.54
2019-05-16T10:37:41.636Z,80.92
2019-05-16T10:40:09.347Z,79.84
2019-05-16T10:42:37.960Z,79.55
2019-05-16T10:45:08.628Z,80.12
2019-05-16T10:47:37.084Z,81.41
2019-05-16T10:50:06.452Z,81.07
2019-05-16T10:52:33.109Z,80.84
2019-05-16T10:55:02.464Z,79.92
2019-05-16T10:57:30.079Z,79.52
2019-05-16T11:00:06.696Z,80.60
2019-05-16T11:02:27.524Z,81.67
2019-05-16T11:05:02.852Z,80.89
2019-05-16T11:07:23.160Z,81.34
2019-05-16T11:09:57.943Z,79.95
2019-05-16T11:12:20.430Z,80.91
2019-05-16T11:14:47.899Z,79.65
2019-05-16T11:17:18.813Z,78.87
2019-05-16T11:24:37.570Z,80.82
2019-05-16T11:27:03.687Z,83.70
2019-05-16T11:29:30.361Z,83.64
2019-05-16T11:31:57.428Z,86.85
2019-05-16T11:34:26.502Z,87.88
2019-05-16T11:39:19.058Z,88.78
2019-05-16T11:41:47.540Z,85.77
2019-05-16T11:44:17.414Z,89.21
2019-05-16T11:46:43.244Z,89.19
2019-05-16T11:49:10.238Z,88.33
2019-05-16T11:51:38.358Z,86.39
2019-05-16T11:54:06.907Z,85.65
2019-05-16T11:56:33.840Z,86.35
2019-05-16T11:59:00.534Z,85.72
2019-05-16T12:01:27.727Z,86.22
2019-05-16T12:03:57.342Z,88.75
2019-05-16T12:06:23.301Z,89.78
2019-05-16T12:08:49.992Z,89.34
2019-05-16T12:11:17.842Z,88.20
2019-05-16T12:13:47.410Z,88.72
2019-05-16T12:16:15.605Z,89.75
2019-05-16T12:18:42.091Z,89.46
2019-05-16T12:21:08.787Z,88.83
2019-05-16T12:23:37.452Z,89.01
2019-05-16T12:26:04.483Z,88.29
2019-05-16T12:28:32.115Z,89.97
2019-05-16T12:31:00.308Z,89.38
2019-05-16T12:33:27.610Z,89.24
2019-05-16T12:35:54.470Z,89.45
2019-05-16T12:38:22.054Z,90.10
2019-05-16T12:40:48.962Z,88.53
2019-05-16T12:43:17.787Z,87.63
2019-05-16T12:45:47.120Z,88.67
2019-05-16T12:48:16.740Z,88.88
2019-05-16T12:50:41.959Z,90.01
2019-05-16T12:53:08.725Z,89.63
2019-05-16T12:55:36.867Z,89.59
2019-05-16T12:58:12.552Z,90.92
2019-05-16T13:00:32.279Z,91.11
2019-05-16T13:02:58.984Z,91.21
2019-05-16T13:05:26.917Z,91.13
2019-05-16T13:07:54.187Z,91.47
2019-05-16T13:10:20.855Z,90.96
2019-05-16T13:12:47.721Z,89.90
2019-05-16T13:15:14.433Z,90.33
2019-05-16T13:17:41.120Z,92.40
2019-05-16T13:20:08.657Z,92.07
2019-05-16T13:22:38.463Z,88.47
2019-05-16T13:25:07.635Z,92.10
2019-05-16T13:27:37.031Z,91.47
2019-05-16T13:30:07.338Z,91.08
2019-05-16T13:32:37.408Z,90.40
2019-05-16T13:35:07.677Z,89.48
2019-05-16T13:37:34.528Z,89.79
2019-05-16T13:40:01.917Z,90.26
2019-05-16T13:42:29.097Z,88.86
2019-05-16T13:44:57.675Z,90.24
2019-05-16T13:47:26.840Z,86.43
2019-05-16T13:49:53.064Z,88.17
2019-05-16T13:52:19.750Z,87.72
2019-05-16T13:54:46.514Z,87.54
2019-05-16T13:57:13.189Z,87.69
2019-05-16T13:59:39.921Z,86.18
2019-05-16T14:02:08.080Z,86.88
2019-05-16T14:04:37.073Z,87.67
2019-05-16T14:07:03.613Z,89.10
2019-05-16T14:09:30.322Z,88.56
2019-05-16T14:11:57.020Z,89.74
2019-05-16T14:14:34.796Z,89.96
2019-05-16T14:16:52.500Z,90.36
2019-05-16T14:19:19.176Z,90.80
2019-05-16T14:21:47.795Z,90.59
2019-05-16T14:24:17.831Z,89.71
2019-05-16T14:26:46.485Z,89.98
2019-05-16T14:29:13.492Z,90.38
2019-05-16T14:31:40.279Z,89.94
2019-05-16T14:34:08.105Z,90.19
2019-05-16T14:36:37.276Z,90.15
2019-05-16T14:39:06.199Z,90.19
2019-05-16T14:41:33.280Z,90.22
2019-05-16T14:43:59.204Z,88.94
2019-05-16T14:46:27.461Z,87.53
2019-05-16T14:48:54.443Z,87.95
2019-05-16T14:51:21.127Z,88.42
2019-05-16T14:53:47.851Z,88.48
2019-05-16T14:56:14.613Z,88.16
2019-05-16T14:58:41.386Z,89.55
2019-05-16T15:03:36.375Z,88.53
2019-05-16T15:06:02.931Z,89.48
2019-05-16T15:08:29.679Z,89.71
2019-05-16T15:10:57.396Z,89.20
2019-05-16T15:15:50.327Z,89.63
2019-05-16T15:18:17.776Z,90.16
2019-05-16T15:20:46.979Z,90.57
2019-05-16T15:23:13.420Z,90.15
2019-05-16T15:25:40.126Z,89.74
2019-05-16T15:28:07.613Z,89.73
2019-05-16T15:30:39.105Z,89.56
2019-05-16T15:33:04.508Z,90.57
2019-05-16T15:35:31.267Z,89.60
2019-05-16T15:37:59.004Z,90.30
2019-05-16T15:40:26.823Z,90.32
2019-05-16T15:42:58.860Z,90.58
2019-05-16T15:45:37.959Z,90.84
2019-05-16T15:48:01.116Z,91.17
2019-05-16T15:50:28.313Z,90.87
2019-05-16T15:52:58.942Z,90.13
2019-05-16T15:55:27.018Z,90.05
2019-05-16T15:57:53.580Z,90.34
2019-05-16T16:02:50.181Z,91.15
2019-05-16T16:05:17.653Z,91.36
2019-05-16T16:07:44.873Z,91.43
2019-05-16T16:10:11.953Z,91.52
2019-05-16T16:12:38.916Z,91.87
2019-05-16T16:15:07.589Z,92.03
2019-05-16T16:17:37.684Z,92.13
2019-05-16T16:20:09.896Z,92.48
2019-05-16T16:22:33.592Z,92.58
2019-05-16T16:25:00.294Z,92.05
2019-05-16T16:27:27.554Z,92.64
2019-05-16T16:29:54.480Z,93.18
2019-05-16T16:32:21.191Z,92.93
2019-05-16T16:34:49.133Z,93.07
2019-05-16T16:37:16.841Z,92.88
2019-05-16T16:39:43.828Z,92.63
2019-05-16T17:12:12.550Z,91.90
2019-05-16T17:14:39.374Z,92.22
2019-05-16T17:17:07.094Z,92.12
2019-05-16T17:19:36.599Z,92.27
2019-05-16T17:22:14.686Z,91.96
2019-05-16T17:24:31.805Z,91.89
2019-05-16T17:26:58.630Z,92.05
2019-05-16T17:29:27.649Z,92.47
2019-05-16T17:32:00.564Z,91.73
2019-05-16T17:34:23.027Z,92.31
2019-05-16T17:36:49.891Z,91.88
2019-05-16T17:39:18.243Z,92.37
2019-05-16T17:41:52.006Z,92.57
2019-05-16T17:44:14.089Z,91.58
2019-05-16T17:46:41.150Z,91.20
2019-05-16T17:49:08.172Z,91.66
2019-05-16T17:51:36.720Z,92.09
2019-05-16T17:54:06.604Z,92.47
2019-05-16T17:56:33.391Z,92.22
2019-05-16T17:59:00.100Z,91.95
2019-05-16T18:01:27.437Z,92.21
2019-05-16T18:03:57.086Z,92.31
2019-05-16T18:06:23.489Z,92.04
2019-05-16T18:08:50.337Z,92.48
2019-05-16T18:11:17.791Z,92.42
2019-05-16T18:13:46.424Z,92.49
2019-05-16T18:16:13.494Z,92.38
2019-05-16T18:18:40.402Z,92.74
2019-05-16T18:21:07.395Z,92.62
2019-05-16T18:23:34.145Z,92.38
2019-05-16T18:26:02.161Z,91.60
2019-05-16T18:28:29.137Z,91.32
2019-05-16T18:30:56.671Z,91.13
2019-05-16T18:33:23.577Z,91.25
2019-05-16T18:35:50.342Z,90.97
2019-05-16T18:38:17.460Z,91.22
2019-05-16T18:40:44.203Z,91.55
2019-05-16T18:43:10.973Z,91.66
2019-05-16T18:45:37.728Z,91.72
2019-05-16T18:48:07.328Z,91.75
2019-05-16T18:50:34.315Z,91.45
2019-05-16T18:53:01.071Z,91.42
2019-05-16T18:55:27.866Z,91.09
2019-05-16T18:57:54.578Z,91.84
2019-05-16T19:00:21.449Z,92.20
2019-05-16T19:02:48.280Z,92.16
2019-05-16T19:05:17.219Z,92.15
2019-05-16T19:07:44.467Z,92.11
2019-05-16T19:10:11.655Z,92.12
2019-05-16T19:12:38.453Z,92.09
2019-05-16T19:15:08.219Z,92.60
2019-05-16T19:17:35.501Z,92.25
2019-05-16T19:20:06.642Z,92.47
2019-05-16T19:22:33.269Z,92.22
2019-05-16T19:25:01.051Z,92.39
2019-05-16T19:27:27.870Z,92.52
2019-05-16T19:29:56.800Z,92.96
2019-05-16T19:32:23.706Z,93.67
2019-05-16T19:34:50.449Z,93.53
2019-05-16T19:37:17.217Z,93.10
2019-05-16T19:39:46.194Z,92.98
2019-05-16T19:42:12.681Z,92.94
2019-05-16T19:44:39.464Z,93.08
2019-05-16T19:47:07.122Z,93.31
2019-05-16T19:49:34.142Z,92.92
2019-05-16T19:52:00.839Z,93.01
2019-05-16T19:54:27.882Z,93.38
2019-05-16T19:56:56.532Z,93.45
2019-05-16T19:59:23.560Z,93.28
2019-05-16T20:01:50.499Z,93.25
2019-05-16T20:04:18.423Z,93.35
2019-05-16T20:06:47.412Z,93.33
2019-05-16T20:09:16.501Z,93.34
2019-05-16T20:11:42.838Z,93.09
2019-05-16T20:14:09.785Z,92.86
2019-05-16T20:16:36.800Z,92.89
2019-05-16T20:19:03.582Z,92.81
2019-05-16T20:21:30.241Z,93.08
2019-05-16T20:23:58.157Z,93.42
2019-05-16T20:26:27.253Z,93.53
2019-05-16T20:28:53.903Z,93.50
2019-05-16T20:31:20.645Z,93.17
2019-05-16T20:33:47.313Z,92.80
2019-05-16T20:36:14.203Z,92.97
2019-05-16T20:38:41.078Z,93.14
2019-05-16T20:41:08.917Z,93.16
2019-05-16T20:43:36.803Z,92.95
2019-05-16T20:46:03.863Z,92.86
2019-05-16T20:48:30.600Z,92.82
2019-05-16T20:50:57.417Z,92.58
2019-05-16T20:53:26.958Z,92.25
2019-05-16T20:55:52.782Z,92.33
2019-05-16T20:58:19.534Z,92.53
2019-05-16T21:00:49.563Z,92.46
2019-05-16T21:03:16.295Z,92.50
2019-05-16T21:05:47.664Z,92.73
2019-05-16T21:08:13.013Z,92.82
2019-05-16T21:10:39.738Z,93.05
2019-05-16T21:13:07.236Z,93.17
2019-05-16T21:15:37.272Z,93.52
2019-05-16T21:18:04.181Z,93.43
2019-05-16T21:20:30.870Z,93.38
2019-05-16T21:22:57.633Z,93.30
2019-05-16T21:25:26.403Z,93.10
2019-05-16T21:27:53.030Z,93.33
2019-05-16T21:30:19.960Z,93.15
2019-05-16T21:32:47.152Z,93.02
2019-05-16T21:35:14.267Z,93.16
2019-05-16T21:37:41.101Z,93.50
2019-05-16T21:40:09.341Z,93.58
2019-05-16T21:42:37.034Z,93.59
2019-05-16T21:45:06.940Z,93.24
2019-05-16T21:47:36.981Z,93.06
2019-05-16T21:50:07.401Z,93.07
2019-05-16T21:52:36.431Z,93.19
2019-05-16T21:55:07.102Z,93.14
2019-05-16T21:57:33.982Z,92.89
2019-05-16T22:00:00.673Z,93.02
2019-05-16T22:02:27.334Z,92.89
2019-05-16T22:04:54.231Z,92.95
2019-05-16T22:07:32.860Z,92.96
2019-05-16T22:09:51.279Z,93.14
2019-05-16T22:12:18.203Z,93.16
2019-05-16T22:14:50.994Z,93.13
2019-05-16T22:17:17.829Z,92.91
2019-05-16T22:19:46.803Z,92.54
2019-05-16T22:22:13.486Z,92.59
2019-05-16T22:24:40.392Z,92.95
2019-05-16T22:27:08.184Z,93.44
2019-05-16T22:29:37.038Z,93.62
2019-05-16T22:32:03.647Z,93.26
2019-05-16T22:34:30.397Z,93.06
2019-05-16T22:36:57.401Z,93.07
2019-05-16T22:39:26.356Z,92.92
2019-05-16T22:41:53.357Z,93.14
2019-05-16T22:44:20.177Z,93.14
2019-05-16T22:46:46.926Z,93.18
2019-05-16T22:49:14.049Z,92.92
2019-05-16T22:51:40.806Z,92.93
2019-05-16T22:54:07.817Z,92.69
2019-05-16T22:56:34.643Z,93.11
2019-05-16T22:59:01.569Z,93.18
2019-05-16T23:01:28.407Z,93.35
2019-05-16T23:03:56.667Z,93.06
2019-05-16T23:06:23.563Z,93.06
2019-05-16T23:08:50.324Z,93.22
2019-05-16T23:11:17.014Z,93.20
2019-05-16T23:13:43.682Z,93.40
2019-05-16T23:16:10.544Z,93.45
2019-05-16T23:18:37.683Z,93.24
2019-05-16T23:21:06.405Z,93.31
2019-05-16T23:23:33.556Z,93.68
2019-05-16T23:26:00.351Z,93.64
2019-05-16T23:28:27.348Z,93.52
2019-05-16T23:30:54.359Z,93.49
2019-05-16T23:33:21.121Z,93.56
2019-05-16T23:35:47.777Z,93.58
2019-05-16T23:38:19.316Z,93.80
2019-05-16T23:40:43.134Z,93.56
2019-05-16T23:43:10.076Z,93.47
2019-05-16T23:45:37.480Z,93.42
2019-05-16T23:48:09.498Z,93.39
2019-05-16T23:50:33.207Z,93.67
2019-05-16T23:53:00.948Z,93.72
2019-05-16T23:55:27.871Z,93.68
2019-05-16T23:57:56.991Z,93.44
